Time;durP1;ratioP1;P1;durP2;ratioP2;P2;SDS_P1;SDS_P2;PMS_P1;PMS_P2;Temp;Humidity;BMP_temperature;BMP_pressure;BME280_temperature;BME280_humidity;BME280_pressure;Samples;Min_cycle;Max_cycle;Signal;HPM_P1;HPM_P2
2022/07/14 00:00:25;;;;;;;2.17;1.62;;;;;;;;;;1703125;82;21036;-68
2022/07/14 00:02:51;;;;;;;2.20;1.60;;;;;;;;;;1704260;83;21052;-68
2022/07/14 00:05:18;;;;;;;2.02;1.37;;;;;;;;;;1706269;83;21068;-68
2022/07/14 00:07:44;;;;;;;3.30;1.60;;;;;;;;;;1710272;83;21031;-67
2022/07/14 00:10:11;;;;;;;1.42;1.32;;;;;;;;;;1708597;82;21060;-68
2022/07/14 00:15:14;;;;;;;3.40;1.52;;;;;;;;;;1802018;79;22726;-68
2022/07/14 00:17:41;;;;;;;2.62;1.60;;;;;;;;;;1771318;81;21036;-68
2022/07/14 00:20:08;;;;;;;1.75;1.57;;;;;;;;;;1772489;79;21037;-68
2022/07/14 00:22:35;;;;;;;1.70;1.60;;;;;;;;;;1773187;81;21550;-68
2022/07/14 00:25:01;;;;;;;3.00;1.82;;;;;;;;;;1770497;81;21020;-68
2022/07/14 00:27:27;;;;;;;1.70;1.60;;;;;;;;;;1771381;80;21032;-68
2022/07/14 00:29:54;;;;;;;1.77;1.57;;;;;;;;;;1773821;81;21039;-68
2022/07/14 00:32:22;;;;;;;3.83;1.52;;;;;;;;;;1772664;81;21032;-68
2022/07/14 00:34:50;;;;;;;2.12;1.92;;;;;;;;;;1773266;81;21068;-68
2022/07/14 00:37:17;;;;;;;1.87;1.65;;;;;;;;;;1764503;79;21474;-68
2022/07/14 00:39:55;;;;;;;2.98;1.75;;;;;;;;;;1769113;81;20989;-68
2022/07/14 00:42:29;;;;;;;2.72;1.60;;;;;;;;;;1768850;81;21030;-68
2022/07/14 00:44:56;;;;;;;2.40;1.50;;;;;;;;;;1774161;81;21049;-68
2022/07/14 00:47:22;;;;;;;2.58;1.60;;;;;;;;;;1721604;81;21012;-68
2022/07/14 00:49:50;;;;;;;1.80;1.65;;;;;;;;;;1719249;82;21500;-68
2022/07/14 00:52:16;;;;;;;3.15;1.80;;;;;;;;;;1706002;83;21624;-68
2022/07/14 00:54:42;;;;;;;2.30;1.50;;;;;;;;;;1708442;83;21048;-67
2022/07/14 00:57:08;;;;;;;2.55;1.42;;;;;;;;;;1705543;83;21017;-67
2022/07/14 00:59:35;;;;;;;1.50;1.40;;;;;;;;;;1696798;83;21106;-67
2022/07/14 01:04:50;;;;;;;3.33;1.85;;;;;;;;;;1672824;79;21740;-68
2022/07/14 01:07:17;;;;;;;2.37;1.60;;;;;;;;;;1661514;86;21074;-68
2022/07/14 01:09:43;;;;;;;1.57;1.42;;;;;;;;;;1710114;83;21025;-67
2022/07/14 01:12:09;;;;;;;2.52;1.85;;;;;;;;;;1680533;84;21065;-68
2022/07/14 01:14:36;;;;;;;2.92;1.67;;;;;;;;;;1649607;85;21515;-68
2022/07/14 01:17:02;;;;;;;2.55;1.70;;;;;;;;;;1653142;85;21091;-67
2022/07/14 01:19:30;;;;;;;3.58;1.80;;;;;;;;;;1677829;84;21070;-67
2022/07/14 01:21:56;;;;;;;2.25;1.60;;;;;;;;;;1655626;85;21045;-67
2022/07/14 01:24:23;;;;;;;3.00;1.60;;;;;;;;;;1727385;82;21049;-68
2022/07/14 01:26:49;;;;;;;1.77;1.57;;;;;;;;;;1712938;82;21012;-67
2022/07/14 01:29:16;;;;;;;3.47;1.70;;;;;;;;;;1702851;83;21044;-68
2022/07/14 01:31:42;;;;;;;4.53;1.72;;;;;;;;;;1708777;83;21017;-68
2022/07/14 01:34:09;;;;;;;2.58;1.50;;;;;;;;;;1711110;82;21017;-68
2022/07/14 01:36:35;;;;;;;1.85;1.60;;;;;;;;;;1711957;82;21536;-68
2022/07/14 01:39:03;;;;;;;1.70;1.60;;;;;;;;;;1716833;82;20989;-68
2022/07/14 01:41:30;;;;;;;2.05;1.50;;;;;;;;;;1709909;83;21834;-68
2022/07/14 01:43:57;;;;;;;1.82;1.55;;;;;;;;;;1714235;82;20989;-68
2022/07/14 01:46:23;;;;;;;4.40;1.57;;;;;;;;;;1710174;83;21037;-68
2022/07/14 01:48:49;;;;;;;1.70;1.60;;;;;;;;;;1709911;82;21061;-68
2022/07/14 01:51:16;;;;;;;2.58;1.70;;;;;;;;;;1707343;83;21013;-68
2022/07/14 01:53:43;;;;;;;2.65;1.60;;;;;;;;;;1711842;82;21014;-68
2022/07/14 01:56:09;;;;;;;2.87;1.57;;;;;;;;;;1682370;84;21037;-68
2022/07/14 01:58:36;;;;;;;1.60;1.50;;;;;;;;;;1651962;86;21099;-68
2022/07/14 02:03:46;;;;;;;3.15;1.50;;;;;;;;;;1667412;83;21179;-68
2022/07/14 02:06:13;;;;;;;3.72;1.62;;;;;;;;;;1690473;83;21030;-68
2022/07/14 02:08:41;;;;;;;2.15;1.80;;;;;;;;;;1687054;85;21100;-68
2022/07/14 02:13:52;;;;;;;1.90;1.70;;;;;;;;;;1742669;81;21025;-67
2022/07/14 02:16:18;;;;;;;2.42;1.42;;;;;;;;;;1745555;81;21026;-67
2022/07/14 02:18:48;;;;;;;3.85;1.70;;;;;;;;;;1744511;82;21555;-67
2022/07/14 02:21:14;;;;;;;6.80;2.10;;;;;;;;;;1744386;81;21014;-67
2022/07/14 02:23:40;;;;;;;1.60;1.50;;;;;;;;;;1744397;81;21049;-67
2022/07/14 02:26:12;;;;;;;2.65;1.70;;;;;;;;;;1744251;82;21039;-68
2022/07/14 02:28:39;;;;;;;2.50;1.72;;;;;;;;;;1745076;81;21531;-67
2022/07/14 02:31:06;;;;;;;2.37;1.60;;;;;;;;;;1747339;81;21021;-67
2022/07/14 02:33:35;;;;;;;1.80;1.70;;;;;;;;;;1742080;81;21564;-67
2022/07/14 02:36:01;;;;;;;3.12;1.77;;;;;;;;;;1743871;82;21025;-68
2022/07/14 02:38:28;;;;;;;5.42;1.70;;;;;;;;;;1705446;83;21034;-67
2022/07/14 02:40:55;;;;;;;2.67;1.80;;;;;;;;;;1744841;81;21006;-68
2022/07/14 02:43:22;;;;;;;2.20;1.70;;;;;;;;;;1746543;82;21056;-68
2022/07/14 02:45:49;;;;;;;4.10;2.10;;;;;;;;;;1740942;81;20999;-68
2022/07/14 02:48:15;;;;;;;2.62;1.80;;;;;;;;;;1749916;81;21044;-67
2022/07/14 02:50:42;;;;;;;2.45;1.90;;;;;;;;;;1702002;83;21065;-68
2022/07/14 02:53:08;;;;;;;3.22;1.90;;;;;;;;;;1744601;82;21037;-68
2022/07/14 02:55:37;;;;;;;2.65;2.00;;;;;;;;;;1741483;81;21104;-67
2022/07/14 02:58:04;;;;;;;2.33;1.80;;;;;;;;;;1741950;82;21069;-67
2022/07/14 03:00:31;;;;;;;2.27;1.90;;;;;;;;;;1744344;82;21050;-67
2022/07/14 03:02:59;;;;;;;3.75;2.10;;;;;;;;;;1740633;81;21084;-68
2022/07/14 03:05:26;;;;;;;1.90;1.70;;;;;;;;;;1748158;80;21604;-68
2022/07/14 03:07:55;;;;;;;3.58;1.80;;;;;;;;;;1751407;80;21036;-68
2022/07/14 03:10:22;;;;;;;2.25;1.70;;;;;;;;;;1744595;81;22096;-68
2022/07/14 03:12:48;;;;;;;1.75;1.65;;;;;;;;;;1747318;80;21011;-68
2022/07/14 03:15:14;;;;;;;2.62;1.90;;;;;;;;;;1745806;81;21490;-68
2022/07/14 03:17:41;;;;;;;2.25;1.90;;;;;;;;;;1749497;80;21013;-68
2022/07/14 03:20:08;;;;;;;2.60;1.90;;;;;;;;;;1738264;80;21020;-69
2022/07/14 03:22:34;;;;;;;1.72;1.62;;;;;;;;;;1744681;80;20999;-67
2022/07/14 03:25:05;;;;;;;2.00;1.80;;;;;;;;;;1743420;80;21070;-68
2022/07/14 03:27:38;;;;;;;5.25;1.92;;;;;;;;;;1754578;81;21064;-67
2022/07/14 03:30:06;;;;;;;2.80;1.90;;;;;;;;;;1742903;81;20972;-67
2022/07/14 03:32:32;;;;;;;4.53;1.87;;;;;;;;;;1756143;80;21544;-67
2022/07/14 03:34:59;;;;;;;2.27;1.90;;;;;;;;;;1746903;81;21037;-68
2022/07/14 03:37:26;;;;;;;2.75;1.80;;;;;;;;;;1746779;81;20968;-68
2022/07/14 03:39:55;;;;;;;4.05;1.95;;;;;;;;;;1756989;80;21067;-68
2022/07/14 03:42:22;;;;;;;2.27;1.80;;;;;;;;;;1741764;80;21043;-68
2022/07/14 03:44:49;;;;;;;2.17;1.90;;;;;;;;;;1747774;81;21064;-69
2022/07/14 03:47:15;;;;;;;3.08;2.05;;;;;;;;;;1744464;81;21495;-68
2022/07/14 03:49:43;;;;;;;2.52;1.90;;;;;;;;;;1727719;81;21024;-68
2022/07/14 03:52:09;;;;;;;2.17;1.85;;;;;;;;;;1753175;80;20977;-67
2022/07/14 03:54:36;;;;;;;2.83;1.80;;;;;;;;;;1747408;80;21043;-68
2022/07/14 03:57:04;;;;;;;2.45;1.70;;;;;;;;;;1747601;81;21070;-67
2022/07/14 03:59:32;;;;;;;2.87;1.85;;;;;;;;;;1722657;81;21074;-67
2022/07/14 04:01:58;;;;;;;2.70;1.90;;;;;;;;;;1743317;80;21547;-68
2022/07/14 04:04:24;;;;;;;2.50;1.98;;;;;;;;;;1748898;80;21580;-68
2022/07/14 04:06:52;;;;;;;2.27;1.80;;;;;;;;;;1745714;81;21016;-68
2022/07/14 04:09:18;;;;;;;3.10;1.80;;;;;;;;;;1743586;81;21071;-68
2022/07/14 04:11:46;;;;;;;3.20;1.90;;;;;;;;;;1745619;82;21100;-68
2022/07/14 04:14:13;;;;;;;2.42;1.80;;;;;;;;;;1741758;82;21018;-68
2022/07/14 04:16:41;;;;;;;2.75;1.90;;;;;;;;;;1743062;82;21079;-67
2022/07/14 04:19:08;;;;;;;3.52;1.90;;;;;;;;;;1742683;81;21546;-67
2022/07/14 04:21:35;;;;;;;2.67;1.92;;;;;;;;;;1746371;81;21553;-67
2022/07/14 04:24:02;;;;;;;2.58;1.70;;;;;;;;;;1743393;82;21010;-68
2022/07/14 04:26:29;;;;;;;5.10;2.20;;;;;;;;;;1746091;82;21005;-67
2022/07/14 04:28:55;;;;;;;2.60;2.20;;;;;;;;;;1747590;81;21052;-67
2022/07/14 04:31:21;;;;;;;4.00;1.98;;;;;;;;;;1747045;81;21047;-67
2022/07/14 04:33:50;;;;;;;2.47;1.90;;;;;;;;;;1743081;82;22110;-68
2022/07/14 04:36:18;;;;;;;2.55;1.90;;;;;;;;;;1737586;81;21045;-67
2022/07/14 04:38:45;;;;;;;2.45;2.05;;;;;;;;;;1745452;82;21567;-67
2022/07/14 04:41:11;;;;;;;2.33;2.05;;;;;;;;;;1743935;82;21008;-67
2022/07/14 04:43:40;;;;;;;4.17;2.08;;;;;;;;;;1739784;81;22257;-67
2022/07/14 04:46:08;;;;;;;2.72;2.35;;;;;;;;;;1742731;81;21061;-68
2022/07/14 04:54:07;;;;;;;3.98;2.40;;;;;;;;;;1746184;81;21551;-67
2022/07/14 04:56:41;;;;;;;3.55;2.20;;;;;;;;;;1741203;81;21057;-67
2022/07/14 04:59:09;;;;;;;3.72;2.15;;;;;;;;;;1740551;81;21073;-67
2022/07/14 05:01:36;;;;;;;3.72;2.02;;;;;;;;;;1740753;81;21510;-67
2022/07/14 05:04:03;;;;;;;3.80;2.17;;;;;;;;;;1742908;81;21083;-66
2022/07/14 05:06:30;;;;;;;3.27;2.30;;;;;;;;;;1710162;82;21061;-67
2022/07/14 05:08:56;;;;;;;2.58;2.30;;;;;;;;;;1674325;84;21114;-67
2022/07/14 05:11:24;;;;;;;4.67;4.20;;;;;;;;;;1673167;84;21523;-68
2022/07/14 05:13:53;;;;;;;3.87;2.30;;;;;;;;;;1690334;84;21058;-66
2022/07/14 05:16:19;;;;;;;2.75;2.10;;;;;;;;;;1686172;85;21481;-67
2022/07/14 05:18:46;;;;;;;3.00;2.25;;;;;;;;;;1713067;83;21056;-67
2022/07/14 05:21:13;;;;;;;3.62;2.02;;;;;;;;;;1689800;84;21057;-67
2022/07/14 05:23:40;;;;;;;2.30;1.87;;;;;;;;;;1699063;83;21606;-67
2022/07/14 05:26:12;;;;;;;4.03;2.00;;;;;;;;;;1701104;84;21052;-67
2022/07/14 05:28:39;;;;;;;3.85;1.80;;;;;;;;;;1746453;80;21017;-67
2022/07/14 05:31:06;;;;;;;2.52;1.98;;;;;;;;;;1745866;80;20954;-68
2022/07/14 05:33:35;;;;;;;4.65;1.90;;;;;;;;;;1742943;80;21114;-67
2022/07/14 05:36:01;;;;;;;2.87;2.00;;;;;;;;;;1759436;80;21027;-67
2022/07/14 05:38:28;;;;;;;6.50;2.42;;;;;;;;;;1744199;81;21059;-68
2022/07/14 05:40:54;;;;;;;1.85;1.70;;;;;;;;;;1744371;81;21008;-68
2022/07/14 05:43:21;;;;;;;3.40;1.80;;;;;;;;;;1733489;80;21053;-68
2022/07/14 05:45:48;;;;;;;2.67;1.87;;;;;;;;;;1748599;81;21041;-69
2022/07/14 05:48:14;;;;;;;1.77;1.67;;;;;;;;;;1749966;80;21048;-68
2022/07/14 05:50:41;;;;;;;3.25;1.90;;;;;;;;;;1718090;80;21524;-68
2022/07/14 05:53:07;;;;;;;2.27;2.00;;;;;;;;;;1750971;80;21080;-68
2022/07/14 05:55:34;;;;;;;2.05;1.85;;;;;;;;;;1748442;80;21064;-69
2022/07/14 05:58:00;;;;;;;1.82;1.70;;;;;;;;;;1744857;80;21083;-68
2022/07/14 06:00:26;;;;;;;3.05;1.70;;;;;;;;;;1746249;81;21524;-68
2022/07/14 06:02:52;;;;;;;2.10;1.90;;;;;;;;;;1739504;80;21049;-68
2022/07/14 06:05:20;;;;;;;2.30;1.67;;;;;;;;;;1740421;80;21020;-69
2022/07/14 06:07:46;;;;;;;1.82;1.70;;;;;;;;;;1737999;81;21048;-68
2022/07/14 06:10:13;;;;;;;2.30;1.85;;;;;;;;;;1743555;82;21044;-69
2022/07/14 06:12:41;;;;;;;2.00;1.80;;;;;;;;;;1741470;80;21048;-68
2022/07/14 06:15:09;;;;;;;1.62;1.52;;;;;;;;;;1746672;81;21056;-67
2022/07/14 06:17:37;;;;;;;1.70;1.60;;;;;;;;;;1757181;80;21024;-67
2022/07/14 06:20:07;;;;;;;2.85;1.65;;;;;;;;;;1758577;80;21068;-69
2022/07/14 06:22:34;;;;;;;3.35;1.80;;;;;;;;;;1748807;80;21120;-68
2022/07/14 06:25:00;;;;;;;2.17;1.62;;;;;;;;;;1733948;82;21004;-68
2022/07/14 06:27:27;;;;;;;2.62;1.80;;;;;;;;;;1734697;82;21552;-67
2022/07/14 06:29:54;;;;;;;1.70;1.60;;;;;;;;;;1740132;80;22064;-67
2022/07/14 06:32:20;;;;;;;3.45;1.70;;;;;;;;;;1737192;82;21040;-68
2022/07/14 06:34:48;;;;;;;4.03;1.80;;;;;;;;;;1742066;81;21078;-68
2022/07/14 06:37:22;;;;;;;2.58;1.80;;;;;;;;;;1739780;82;20961;-67
2022/07/14 06:39:48;;;;;;;5.95;2.00;;;;;;;;;;1737539;80;21083;-67
2022/07/14 06:42:15;;;;;;;2.10;1.90;;;;;;;;;;1741679;81;21068;-68
2022/07/14 06:44:46;;;;;;;2.50;1.70;;;;;;;;;;1739509;81;21037;-66
2022/07/14 06:47:12;;;;;;;2.50;1.70;;;;;;;;;;1739133;81;21024;-66
2022/07/14 06:49:38;;;;;;;2.35;1.80;;;;;;;;;;1741597;80;21133;-67
2022/07/14 06:52:05;;;;;;;2.62;1.75;;;;;;;;;;1738023;81;21072;-67
2022/07/14 06:54:32;;;;;;;4.03;2.00;;;;;;;;;;1740280;81;21004;-67
2022/07/14 06:56:58;;;;;;;2.72;1.87;;;;;;;;;;1734254;82;21028;-67
2022/07/14 06:59:24;;;;;;;2.08;1.52;;;;;;;;;;1738375;80;21516;-65
2022/07/14 07:01:50;;;;;;;2.58;1.62;;;;;;;;;;1741891;80;21016;-66
2022/07/14 07:04:17;;;;;;;1.82;1.60;;;;;;;;;;1740173;81;21036;-65
2022/07/14 07:06:43;;;;;;;1.95;1.67;;;;;;;;;;1737018;80;21015;-65
2022/07/14 07:09:11;;;;;;;2.08;1.87;;;;;;;;;;1741782;81;21050;-66
2022/07/14 07:11:56;;;;;;;2.80;1.70;;;;;;;;;;1737237;82;21058;-66
2022/07/14 07:14:22;;;;;;;2.60;1.95;;;;;;;;;;1740640;81;21085;-65
2022/07/14 07:16:50;;;;;;;1.87;1.75;;;;;;;;;;1744383;81;21091;-66
2022/07/14 07:19:16;;;;;;;2.33;1.90;;;;;;;;;;1736852;81;21070;-67
2022/07/14 07:21:43;;;;;;;2.47;1.80;;;;;;;;;;1737387;81;21015;-65
2022/07/14 07:24:11;;;;;;;2.37;2.00;;;;;;;;;;1737577;81;21530;-64
2022/07/14 07:26:38;;;;;;;4.45;2.22;;;;;;;;;;1741695;82;21013;-65
2022/07/14 07:29:04;;;;;;;1.98;1.70;;;;;;;;;;1741315;82;21524;-65
2022/07/14 07:31:31;;;;;;;2.95;1.62;;;;;;;;;;1694207;84;21068;-66
2022/07/14 07:33:58;;;;;;;3.40;1.80;;;;;;;;;;1689694;83;21046;-66
2022/07/14 07:36:24;;;;;;;2.22;1.57;;;;;;;;;;1666297;85;21048;-66
2022/07/14 07:38:50;;;;;;;2.37;2.00;;;;;;;;;;1743841;81;21115;-65
2022/07/14 07:41:16;;;;;;;2.12;1.92;;;;;;;;;;1742990;82;21032;-67
2022/07/14 07:43:42;;;;;;;2.70;1.95;;;;;;;;;;1737562;81;21057;-67
2022/07/14 07:46:08;;;;;;;2.27;2.02;;;;;;;;;;1741047;81;21517;-67
2022/07/14 07:48:35;;;;;;;3.92;1.80;;;;;;;;;;1741763;81;21071;-68
2022/07/14 07:51:01;;;;;;;2.58;2.02;;;;;;;;;;1743702;81;21359;-67
2022/07/14 07:53:27;;;;;;;2.58;1.62;;;;;;;;;;1737566;81;21529;-67
2022/07/14 07:55:53;;;;;;;2.00;1.80;;;;;;;;;;1741896;82;21049;-67
2022/07/14 07:58:20;;;;;;;3.02;1.80;;;;;;;;;;1737461;81;21010;-67
2022/07/14 08:00:47;;;;;;;2.60;2.10;;;;;;;;;;1738627;81;21011;-67
2022/07/14 08:03:13;;;;;;;4.90;2.00;;;;;;;;;;1742431;82;21078;-65
2022/07/14 08:05:40;;;;;;;2.17;1.87;;;;;;;;;;1748377;81;21145;-67
2022/07/14 08:08:08;;;;;;;3.25;2.05;;;;;;;;;;1743061;81;21061;-66
2022/07/14 08:10:34;;;;;;;3.17;2.10;;;;;;;;;;1748382;81;21072;-67
2022/07/14 08:13:01;;;;;;;16.45;14.85;;;;;;;;;;1742160;81;21464;-67
2022/07/14 08:15:27;;;;;;;6.95;6.05;;;;;;;;;;1745220;81;21063;-66
2022/07/14 08:17:55;;;;;;;35.10;28.80;;;;;;;;;;1742698;81;21059;-65
2022/07/14 08:20:21;;;;;;;6.42;3.20;;;;;;;;;;1748230;80;21004;-66
2022/07/14 08:22:47;;;;;;;3.35;2.35;;;;;;;;;;1741311;80;21006;-65
2022/07/14 08:25:13;;;;;;;4.78;2.62;;;;;;;;;;1742234;81;21517;-65
2022/07/14 08:27:39;;;;;;;3.80;2.40;;;;;;;;;;1739028;81;21458;-66
2022/07/14 08:30:07;;;;;;;3.35;2.20;;;;;;;;;;1740487;81;20978;-67
2022/07/14 08:32:36;;;;;;;4.37;2.77;;;;;;;;;;1742874;81;21049;-67
2022/07/14 08:35:03;;;;;;;6.75;3.60;;;;;;;;;;1740754;82;21603;-65
2022/07/14 08:37:29;;;;;;;3.17;2.30;;;;;;;;;;1745466;81;21045;-66
2022/07/14 08:39:56;;;;;;;3.65;2.10;;;;;;;;;;1741727;81;21096;-66
2022/07/14 08:42:22;;;;;;;3.37;2.10;;;;;;;;;;1744288;81;21033;-66
2022/07/14 08:44:48;;;;;;;2.72;2.05;;;;;;;;;;1749032;81;21018;-66
2022/07/14 08:47:14;;;;;;;3.62;1.98;;;;;;;;;;1746605;81;21048;-65
2022/07/14 08:49:41;;;;;;;2.02;1.85;;;;;;;;;;1717245;80;22118;-66
2022/07/14 08:52:07;;;;;;;2.40;2.00;;;;;;;;;;1737976;81;20977;-66
2022/07/14 08:54:34;;;;;;;2.62;2.05;;;;;;;;;;1740174;80;21064;-66
2022/07/14 08:56:59;;;;;;;12.73;11.38;;;;;;;;;;1740904;82;21017;-67
2022/07/14 08:59:26;;;;;;;22.65;17.82;;;;;;;;;;1742380;82;21031;-67
2022/07/14 09:01:53;;;;;;;15.68;11.90;;;;;;;;;;1700059;82;21594;-68
2022/07/14 09:04:20;;;;;;;14.35;11.18;;;;;;;;;;1693004;83;21017;-68
2022/07/14 09:06:47;;;;;;;4.97;4.05;;;;;;;;;;1740945;81;21060;-70
2022/07/14 09:09:15;;;;;;;2.02;1.62;;;;;;;;;;1737330;81;21025;-71
2022/07/14 09:11:49;;;;;;;2.45;1.92;;;;;;;;;;1740129;82;21045;-70
2022/07/14 09:14:15;;;;;;;2.72;2.20;;;;;;;;;;1698097;82;21081;-69
2022/07/14 09:16:41;;;;;;;3.42;2.15;;;;;;;;;;1708134;82;21509;-68
2022/07/14 09:19:11;;;;;;;3.10;2.30;;;;;;;;;;1739322;80;21028;-70
2022/07/14 09:21:37;;;;;;;7.72;2.15;;;;;;;;;;1730136;81;21057;-68
2022/07/14 09:24:06;;;;;;;2.65;2.08;;;;;;;;;;1740477;81;21029;-69
2022/07/14 09:26:35;;;;;;;2.40;2.20;;;;;;;;;;1742179;81;21091;-70
2022/07/14 09:29:03;;;;;;;2.35;2.15;;;;;;;;;;1747711;80;21057;-70
2022/07/14 09:31:30;;;;;;;3.27;2.25;;;;;;;;;;1740944;81;21069;-70
2022/07/14 09:34:00;;;;;;;5.70;2.30;;;;;;;;;;1738271;81;21181;-71
2022/07/14 09:36:31;;;;;;;4.85;1.92;;;;;;;;;;1746160;81;21049;-70
2022/07/14 09:39:03;;;;;;;3.00;2.30;;;;;;;;;;1744731;81;21029;-69
2022/07/14 09:41:36;;;;;;;5.55;2.55;;;;;;;;;;1750930;81;21462;-69
2022/07/14 09:44:10;;;;;;;4.83;2.30;;;;;;;;;;1731442;81;21539;-69
2022/07/14 09:46:42;;;;;;;4.15;2.33;;;;;;;;;;1739394;81;21587;-71
2022/07/14 09:49:08;;;;;;;4.03;2.40;;;;;;;;;;1738124;80;21033;-70
2022/07/14 09:51:34;;;;;;;2.98;2.20;;;;;;;;;;1742660;81;21036;-68
2022/07/14 09:54:01;;;;;;;2.62;2.37;;;;;;;;;;1719832;82;20994;-68
2022/07/14 09:56:29;;;;;;;3.42;2.50;;;;;;;;;;1711668;83;21005;-67
2022/07/14 09:58:56;;;;;;;3.45;2.50;;;;;;;;;;1708169;82;21838;-68
2022/07/14 10:01:34;;;;;;;3.00;2.17;;;;;;;;;;1688924;83;21140;-67
2022/07/14 10:04:01;;;;;;;3.45;2.52;;;;;;;;;;1697843;82;21029;-69
2022/07/14 10:06:27;;;;;;;4.67;2.35;;;;;;;;;;1700680;82;21029;-67
2022/07/14 10:08:55;;;;;;;3.80;2.50;;;;;;;;;;1709309;82;21510;-68
2022/07/14 10:11:21;;;;;;;5.67;2.30;;;;;;;;;;1700345;82;21536;-67
2022/07/14 10:13:49;;;;;;;4.50;2.37;;;;;;;;;;1713057;82;21058;-65
2022/07/14 10:16:15;;;;;;;3.90;2.35;;;;;;;;;;1748423;80;21041;-68
2022/07/14 10:18:42;;;;;;;3.62;2.52;;;;;;;;;;1715162;80;22293;-67
2022/07/14 10:21:09;;;;;;;3.02;2.30;;;;;;;;;;1748612;80;21086;-68
2022/07/14 10:23:35;;;;;;;3.52;2.33;;;;;;;;;;1758524;80;21028;-66
2022/07/14 10:26:01;;;;;;;3.80;2.47;;;;;;;;;;1747871;80;20965;-67
2022/07/14 10:28:27;;;;;;;6.10;4.15;;;;;;;;;;1752817;80;21029;-67
2022/07/14 10:31:11;;;;;;;5.05;3.00;;;;;;;;;;1748787;80;21057;-66
2022/07/14 10:33:40;;;;;;;8.35;3.05;;;;;;;;;;1752917;80;21090;-65
2022/07/14 10:36:20;;;;;;;4.50;2.42;;;;;;;;;;1751442;80;21029;-65
2022/07/14 10:38:54;;;;;;;4.37;2.40;;;;;;;;;;1683735;80;21043;-66
2022/07/14 10:41:22;;;;;;;4.03;2.60;;;;;;;;;;1749853;80;21492;-67
2022/07/14 10:43:59;;;;;;;2.92;2.47;;;;;;;;;;1748263;80;21120;-66
2022/07/14 10:46:38;;;;;;;17.17;11.05;;;;;;;;;;1745196;80;21033;-67
2022/07/14 10:49:06;;;;;;;37.70;28.38;;;;;;;;;;1750692;81;21060;-68
2022/07/14 10:51:33;;;;;;;7.45;6.10;;;;;;;;;;1720051;82;21011;-67
2022/07/14 10:54:03;;;;;;;5.85;2.95;;;;;;;;;;1673922;84;21072;-67
2022/07/14 10:56:30;;;;;;;3.72;2.35;;;;;;;;;;1751431;80;21051;-66
2022/07/14 10:59:15;;;;;;;2.83;2.50;;;;;;;;;;1749007;80;21105;-68
2022/07/14 11:01:43;;;;;;;4.00;2.40;;;;;;;;;;1751021;79;21547;-68
2022/07/14 11:04:09;;;;;;;2.85;2.20;;;;;;;;;;1743514;80;21532;-70
2022/07/14 11:06:35;;;;;;;2.35;2.15;;;;;;;;;;1750871;80;21087;-67
2022/07/14 11:09:26;;;;;;;3.58;2.45;;;;;;;;;;1751791;80;20991;-68
2022/07/14 11:12:10;;;;;;;4.85;2.45;;;;;;;;;;1742816;80;22169;-69
2022/07/14 11:14:40;;;;;;;5.37;2.30;;;;;;;;;;1749007;80;21036;-67
2022/07/14 11:17:06;;;;;;;4.30;2.37;;;;;;;;;;1747535;80;21009;-66
2022/07/14 11:19:33;;;;;;;2.95;2.37;;;;;;;;;;1747990;80;21041;-67
2022/07/14 11:22:11;;;;;;;3.22;2.30;;;;;;;;;;1750462;80;21494;-68
2022/07/14 11:24:54;;;;;;;4.20;2.47;;;;;;;;;;1751153;80;20982;-69
2022/07/14 11:27:21;;;;;;;6.05;2.62;;;;;;;;;;1747671;80;21590;-67
2022/07/14 11:29:48;;;;;;;4.00;2.40;;;;;;;;;;1748267;80;20987;-67
2022/07/14 11:32:31;;;;;;;4.83;2.30;;;;;;;;;;1744313;80;21068;-67
2022/07/14 11:37:58;;;;;;;3.95;2.30;;;;;;;;;;1745809;81;21068;-69
2022/07/14 11:40:43;;;;;;;3.12;2.10;;;;;;;;;;1752848;80;21049;-69
2022/07/14 11:43:28;;;;;;;3.02;2.30;;;;;;;;;;1749133;81;21058;-68
2022/07/14 11:45:58;;;;;;;3.60;2.37;;;;;;;;;;1737827;80;20997;-69
2022/07/14 11:48:48;;;;;;;4.65;2.70;;;;;;;;;;1744475;80;21005;-69
2022/07/14 11:51:19;;;;;;;3.00;2.27;;;;;;;;;;1741877;80;21050;-69
2022/07/14 11:53:46;;;;;;;3.20;2.50;;;;;;;;;;1757994;80;21505;-68
2022/07/14 11:56:12;;;;;;;7.00;2.33;;;;;;;;;;1672965;83;21040;-67
2022/07/14 11:58:41;;;;;;;3.27;2.50;;;;;;;;;;1675511;83;21057;-67
2022/07/14 12:01:08;;;;;;;3.10;2.35;;;;;;;;;;1752481;80;21572;-67
2022/07/14 12:03:34;;;;;;;2.83;2.17;;;;;;;;;;1746320;80;21056;-67
2022/07/14 12:06:01;;;;;;;2.60;2.05;;;;;;;;;;1750333;80;21026;-68
2022/07/14 12:08:29;;;;;;;3.65;2.40;;;;;;;;;;1746917;81;21060;-68
2022/07/14 12:11:04;;;;;;;3.40;2.40;;;;;;;;;;1740467;81;21018;-68
2022/07/14 12:13:30;;;;;;;2.90;2.30;;;;;;;;;;1745819;81;21596;-68
2022/07/14 12:16:02;;;;;;;4.22;2.20;;;;;;;;;;1735344;81;21021;-66
2022/07/14 12:18:31;;;;;;;4.15;2.85;;;;;;;;;;1739178;81;21057;-66
2022/07/14 12:20:59;;;;;;;3.00;2.30;;;;;;;;;;1665934;84;21072;-66
2022/07/14 12:23:26;;;;;;;4.45;2.60;;;;;;;;;;1744128;81;21013;-67
2022/07/14 12:25:52;;;;;;;4.87;2.27;;;;;;;;;;1739601;81;21002;-68
2022/07/14 12:28:23;;;;;;;2.52;2.30;;;;;;;;;;1743862;81;21089;-68
2022/07/14 12:32:32;;;;;;;2.40;2.20;;;;;;;;;;1809641;79;22740;-65
2022/07/14 12:34:58;;;;;;;4.08;2.60;;;;;;;;;;1778955;78;21075;-66
2022/07/14 12:37:24;;;;;;;3.58;2.37;;;;;;;;;;1781434;79;21020;-67
2022/07/14 12:39:50;;;;;;;5.15;2.47;;;;;;;;;;1779495;80;21047;-67
2022/07/14 12:42:17;;;;;;;2.58;2.25;;;;;;;;;;1779625;80;21004;-66
2022/07/14 12:44:45;;;;;;;3.67;2.37;;;;;;;;;;1745404;80;21058;-66
2022/07/14 12:47:15;;;;;;;4.42;2.62;;;;;;;;;;1778800;80;21523;-66
2022/07/14 12:49:43;;;;;;;3.42;2.40;;;;;;;;;;1777943;79;21117;-66
2022/07/14 12:52:11;;;;;;;3.12;2.17;;;;;;;;;;1780274;79;21502;-67
2022/07/14 12:54:38;;;;;;;3.70;2.55;;;;;;;;;;1775514;80;21005;-68
2022/07/14 12:57:04;;;;;;;5.92;2.58;;;;;;;;;;1756302;80;21032;-65
2022/07/14 12:59:32;;;;;;;3.52;2.37;;;;;;;;;;1779651;80;21070;-65
2022/07/14 13:02:00;;;;;;;2.83;2.30;;;;;;;;;;1770390;80;21571;-66
2022/07/14 13:04:37;;;;;;;3.15;2.35;;;;;;;;;;1760373;80;21004;-67
2022/07/14 13:07:04;;;;;;;10.82;9.23;;;;;;;;;;1749320;80;21631;-67
2022/07/14 13:09:31;;;;;;;10.15;8.45;;;;;;;;;;1750264;80;21523;-66
2022/07/14 13:11:57;;;;;;;3.85;2.40;;;;;;;;;;1747634;80;21095;-65
2022/07/14 13:14:24;;;;;;;4.17;2.67;;;;;;;;;;1749887;80;22293;-65
2022/07/14 13:16:51;;;;;;;3.37;2.30;;;;;;;;;;1750231;80;21108;-66
2022/07/14 13:19:20;;;;;;;3.05;2.50;;;;;;;;;;1749350;80;21055;-65
2022/07/14 13:21:48;;;;;;;5.90;2.55;;;;;;;;;;1696861;83;21013;-66
2022/07/14 13:24:15;;;;;;;3.65;2.27;;;;;;;;;;1691099;83;21131;-67
2022/07/14 13:26:41;;;;;;;3.30;2.40;;;;;;;;;;1691511;83;21579;-66
2022/07/14 13:29:08;;;;;;;2.92;2.40;;;;;;;;;;1692489;83;21311;-66
2022/07/14 13:31:34;;;;;;;4.75;2.20;;;;;;;;;;1682716;83;21047;-66
2022/07/14 13:34:01;;;;;;;7.20;2.33;;;;;;;;;;1672952;84;21091;-67
2022/07/14 13:36:29;;;;;;;4.90;2.35;;;;;;;;;;1667541;84;21100;-68
2022/07/14 13:38:56;;;;;;;23.77;21.48;;;;;;;;;;1723433;81;21083;-66
2022/07/14 13:41:22;;;;;;;19.10;17.07;;;;;;;;;;1718329;81;21020;-65
2022/07/14 13:43:50;;;;;;;4.20;3.35;;;;;;;;;;1717869;81;21096;-67
2022/07/14 13:46:17;;;;;;;4.05;2.60;;;;;;;;;;1720157;81;21538;-66
2022/07/14 13:48:44;;;;;;;5.40;2.60;;;;;;;;;;1717514;81;21075;-66
2022/07/14 13:53:58;;;;;;;3.35;2.42;;;;;;;;;;1716099;81;21139;-67
2022/07/14 13:56:25;;;;;;;3.15;2.30;;;;;;;;;;1715735;81;21068;-68
2022/07/14 13:58:51;;;;;;;4.25;2.20;;;;;;;;;;1720692;81;20996;-67
2022/07/14 14:01:17;;;;;;;3.08;2.33;;;;;;;;;;1719059;81;21143;-66
2022/07/14 14:03:43;;;;;;;3.67;2.30;;;;;;;;;;1725189;81;21101;-67
2022/07/14 14:06:17;;;;;;;4.42;2.12;;;;;;;;;;1720233;81;22386;-66
2022/07/14 14:08:41;;;;;;;2.80;2.22;;;;;;;;;;1720834;81;21105;-67
2022/07/14 14:11:07;;;;;;;2.95;2.25;;;;;;;;;;1720769;81;21055;-67
2022/07/14 14:13:34;;;;;;;3.00;2.70;;;;;;;;;;1723160;81;21503;-67
2022/07/14 14:16:01;;;;;;;2.47;2.12;;;;;;;;;;1714249;83;21083;-67
2022/07/14 14:18:31;;;;;;;2.77;2.00;;;;;;;;;;1722900;82;21035;-68
2022/07/14 14:20:58;;;;;;;4.08;2.20;;;;;;;;;;1732111;82;21055;-68
2022/07/14 14:23:24;;;;;;;2.98;2.25;;;;;;;;;;1707010;83;22099;-67
2022/07/14 14:25:51;;;;;;;5.75;2.40;;;;;;;;;;1730933;82;21023;-67
2022/07/14 14:28:19;;;;;;;2.22;2.00;;;;;;;;;;1730945;82;21076;-67
2022/07/14 14:30:45;;;;;;;2.80;2.20;;;;;;;;;;1712978;82;21163;-67
2022/07/14 14:33:12;;;;;;;5.45;2.22;;;;;;;;;;1722419;82;21009;-68
2022/07/14 14:35:38;;;;;;;22.50;17.20;;;;;;;;;;1747266;81;21040;-67
2022/07/14 14:38:06;;;;;;;3.95;2.30;;;;;;;;;;1743436;81;21514;-66
2022/07/14 14:40:34;;;;;;;19.25;17.27;;;;;;;;;;1747108;81;21472;-67
2022/07/14 14:43:00;;;;;;;42.30;35.40;;;;;;;;;;1746746;81;21046;-70
2022/07/14 14:45:27;;;;;;;4.95;2.90;;;;;;;;;;1744316;81;21024;-67
2022/07/14 14:47:53;;;;;;;3.70;2.40;;;;;;;;;;1745595;81;21092;-68
2022/07/14 14:50:19;;;;;;;4.05;2.10;;;;;;;;;;1747185;81;21015;-68
2022/07/14 14:52:50;;;;;;;5.58;2.55;;;;;;;;;;1739080;81;21061;-68
2022/07/14 14:55:16;;;;;;;4.47;2.25;;;;;;;;;;1747212;81;22218;-68
2022/07/14 14:57:45;;;;;;;3.30;2.30;;;;;;;;;;1694352;83;21001;-69
2022/07/14 15:00:11;;;;;;;6.50;3.08;;;;;;;;;;1747013;81;21073;-68
2022/07/14 15:02:39;;;;;;;7.47;4.30;;;;;;;;;;1736127;81;21595;-67
2022/07/14 15:05:06;;;;;;;4.20;3.52;;;;;;;;;;1743089;81;20996;-68
2022/07/14 15:07:32;;;;;;;2.95;2.50;;;;;;;;;;1740241;81;21032;-68
2022/07/14 15:09:59;;;;;;;6.87;2.50;;;;;;;;;;1744364;81;21077;-69